Los Angeles, CA (90016)

10:14 PM PST on February 08, 2016 (GMT -0800)
CBS Radio, Venice and Fairfax | | Change Station
CLOSE
Current Station
Personal Weather Station
Location: Los Angeles, CA
Elevation: 97 ft
Nearby Weather Stations

Elev 97 ft 34.04 °N, 118.37 °W | Updated 3 minutes ago

Clear
Clear
62.6 °F
Feels Like 62.6 °F
N
0.0
Wind Variable Wind from WNW
Gusts 0.0 mph

Today
High -- | Low -- °F
--% Chance of Precip.
Yesterday
High -- | Low -- °F
Precip. -- in
Pressure 30.12 in
Visibility 10.0 miles
Clouds Clear
Dew Point 44 °F
Humidity 50%
Rainfall 0.00 in
Snow Depth Not available.
6:45 AM 5:30 PM
New Moon, 1% visible
METAR KSMO 090551Z AUTO 34003KT 10SM CLR 22/M06 A3013 RMK AO2 SLP200 T02171056 10272 20211 53009 $
Pressure 30.12 in
Visibility 10.0 miles
Clouds Clear
Dew Point 44 °F
Humidity 50%
Rainfall 0.00 in
Snow Depth Not available.
6:45 AM 5:30 PM
New Moon, 1% visible
METAR KSMO 090551Z AUTO 34003KT 10SM CLR 22/M06 A3013 RMK AO2 SLP200 T02171056 10272 20211 53009 $

10-Day Weather Forecast

Almanac

Astronomy

Feb. 08, 2016 Rise Set
Actual Time
Civil Twilight
Nautical Twilight
Astronomical Twilight
Moon
Length of Visible Light
Length of Day
Tomorrow will be .
, % of the Moon is Illuminated

Today's Extremes

State Highs State Lows

Community

WunderPhotos

Upload Photos

1,891,571 photos uploaded!

WunderBlog® & News

Nearby

Air Quality

  Air Quality AQ Index Pollutant
Not available.

Snow Depth

Station Depth Elevation

Earthquake Activity

City Distance Mag. Time & Date
Minimum magnitude displayed is 2.5.

Coastal Water Temperatures

Place Temperature

Stations

Nearby Weather Stations

Station Location Temp. Windchill Dew Point Humidity Wind Precip. Elev Updated Type
                   

Watches & Warnings

There are currently no watches in effect.